createdAt,value
2019-04-21T00:00:35.336Z,1022.35
2019-04-21T00:01:39.866Z,1022.38
2019-04-21T00:02:37.749Z,1022.37
2019-04-21T00:03:42.285Z,1022.32
2019-04-21T00:04:46.545Z,1022.39
2019-04-21T00:05:52.976Z,1022.36
2019-04-21T00:07:01.275Z,1022.36
2019-04-21T00:07:54.317Z,1022.34
2019-04-21T00:09:00.882Z,1022.33
2019-04-21T00:10:57.836Z,1022.34
2019-04-21T00:11:55.674Z,1022.35
2019-04-21T00:12:52.323Z,1022.34
2019-04-21T00:13:47.030Z,1022.32
2019-04-21T00:14:45.032Z,1022.34
2019-04-21T00:15:42.279Z,1022.33
2019-04-21T00:16:44.144Z,1022.34
2019-04-21T00:17:35.078Z,1022.34
2019-04-21T00:18:40.691Z,1022.30
2019-04-21T00:19:37.062Z,1022.29
2019-04-21T00:20:39.636Z,1022.28
2019-04-21T00:21:40.490Z,1022.31
2019-04-21T00:22:44.337Z,1022.27
2019-04-21T00:23:53.842Z,1022.28
2019-04-21T00:25:46.140Z,1022.23
2019-04-21T00:26:53.147Z,1022.28
2019-04-21T00:27:55.224Z,1022.28
2019-04-21T00:28:59.412Z,1022.24
2019-04-21T00:29:56.671Z,1022.24
2019-04-21T00:30:50.877Z,1022.24
2019-04-21T00:31:45.557Z,1022.20
2019-04-21T00:32:46.049Z,1022.25
2019-04-21T00:33:39.174Z,1022.21
2019-04-21T00:34:34.286Z,1022.20
2019-04-21T00:35:41.456Z,1022.18
2019-04-21T00:36:47.549Z,1022.20
2019-04-21T00:37:53.174Z,1022.18
2019-04-21T00:39:09.542Z,1022.15
2019-04-21T00:40:02.172Z,1022.14
2019-04-21T00:40:56.714Z,1022.13
2019-04-21T00:41:53.747Z,1022.14
2019-04-21T00:42:48.754Z,1022.16
2019-04-21T00:43:49.403Z,1022.13
2019-04-21T00:44:54.240Z,1022.11
2019-04-21T00:45:44.876Z,1022.13
2019-04-21T00:46:47.239Z,1022.13
2019-04-21T00:47:51.137Z,1022.11
2019-04-21T00:48:53.571Z,1022.07
2019-04-21T00:49:56.522Z,1022.09
2019-04-21T00:51:10.623Z,1022.09
2019-04-21T00:52:07.240Z,1022.07
2019-04-21T00:53:00.451Z,1022.05
2019-04-21T00:55:10.960Z,1022.03
2019-04-21T00:55:59.704Z,1022.03
2019-04-21T00:56:56.259Z,1021.98
2019-04-21T00:57:57.195Z,1021.97
2019-04-21T00:58:59.835Z,1021.95
2019-04-21T00:59:52.175Z,1021.95
2019-04-21T01:01:00.439Z,1021.93
2019-04-21T01:01:55.502Z,1021.96
2019-04-21T01:02:56.167Z,1021.93
2019-04-21T01:03:57.729Z,1021.99
2019-04-21T01:05:00.048Z,1021.96
2019-04-21T01:06:14.365Z,1021.99
2019-04-21T01:06:57.626Z,1022.00
2019-04-21T01:07:54.653Z,1022.00
2019-04-21T01:08:55.073Z,1022.01
2019-04-21T01:09:50.929Z,1022.01
2019-04-21T01:10:47.365Z,1022.04
2019-04-21T01:11:55.295Z,1022.02
2019-04-21T01:12:54.703Z,1022.01
2019-04-21T01:13:58.001Z,1021.98
2019-04-21T01:14:58.161Z,1021.99
2019-04-21T01:15:52.790Z,1021.96
2019-04-21T01:16:57.637Z,1021.98
2019-04-21T01:17:52.175Z,1021.97
2019-04-21T01:18:54.574Z,1021.98
2019-04-21T01:19:50.642Z,1021.99
2019-04-21T01:20:33.164Z,1021.97
2019-04-21T01:21:32.145Z,1021.99
2019-04-21T01:22:32.101Z,1021.93
2019-04-21T01:23:32.108Z,1021.99
2019-04-21T01:24:36.177Z,1021.99
2019-04-21T01:25:38.191Z,1021.99
2019-04-21T01:26:43.786Z,1021.99
2019-04-21T01:27:53.846Z,1021.99
2019-04-21T01:28:54.449Z,1021.96
2019-04-21T01:29:58.761Z,1021.98
2019-04-21T01:30:53.558Z,1021.98
2019-04-21T01:31:48.237Z,1021.94
2019-04-21T01:32:53.215Z,1021.96
2019-04-21T01:33:57.482Z,1021.96
2019-04-21T01:34:53.255Z,1021.88
2019-04-21T01:35:54.911Z,1021.95
2019-04-21T01:36:52.925Z,1021.88
2019-04-21T01:37:57.764Z,1021.86
2019-04-21T01:38:58.288Z,1021.87
2019-04-21T01:39:54.505Z,1021.83
2019-04-21T01:40:57.124Z,1021.83
2019-04-21T01:41:57.230Z,1021.84
2019-04-21T01:42:51.414Z,1021.86
2019-04-21T01:43:50.343Z,1021.84
2019-04-21T01:44:53.475Z,1021.79
2019-04-21T01:45:48.765Z,1021.82
2019-04-21T01:46:49.046Z,1021.80
2019-04-21T01:47:52.178Z,1021.81
2019-04-21T01:48:49.398Z,1021.81
2019-04-21T01:49:45.353Z,1021.83
2019-04-21T01:50:51.268Z,1021.83
2019-04-21T01:52:03.121Z,1021.81
2019-04-21T01:52:56.005Z,1021.79
2019-04-21T01:53:55.135Z,1021.82
2019-04-21T01:54:55.130Z,1021.77
2019-04-21T01:55:58.742Z,1021.75
2019-04-21T01:56:51.238Z,1021.77
2019-04-21T01:57:52.158Z,1021.74
2019-04-21T01:58:44.348Z,1021.75
2019-04-21T01:59:48.773Z,1021.76
2019-04-21T02:00:48.255Z,1021.74
2019-04-21T02:01:52.335Z,1021.73
2019-04-21T02:02:59.279Z,1021.71
2019-04-21T02:04:57.581Z,1021.73
2019-04-21T02:06:00.020Z,1021.76
2019-04-21T02:06:57.297Z,1021.77
2019-04-21T02:08:51.455Z,1021.75
2019-04-21T02:09:59.292Z,1021.79
2019-04-21T02:10:56.048Z,1021.77
2019-04-21T02:11:56.368Z,1021.78
2019-04-21T02:12:52.459Z,1021.78
2019-04-21T02:13:57.192Z,1021.77
2019-04-21T02:15:00.430Z,1021.80
2019-04-21T02:15:55.547Z,1021.75
2019-04-21T02:16:52.106Z,1021.73
2019-04-21T02:17:53.783Z,1021.76
2019-04-21T02:18:52.968Z,1021.80
2019-04-21T02:19:51.457Z,1021.74
2019-04-21T02:20:41.007Z,1021.77
2019-04-21T02:21:48.843Z,1021.72
2019-04-21T02:23:10.015Z,1021.74
2019-04-21T02:23:58.688Z,1021.71
2019-04-21T02:24:57.771Z,1021.74
2019-04-21T02:25:58.786Z,1021.72
2019-04-21T02:26:57.314Z,1021.75
2019-04-21T02:27:59.492Z,1021.71
2019-04-21T02:29:01.845Z,1021.71
2019-04-21T02:29:55.929Z,1021.74
2019-04-21T02:32:14.282Z,1021.69
2019-04-21T02:33:13.735Z,1021.66
2019-04-21T02:34:04.524Z,1021.71
2019-04-21T02:36:17.073Z,1021.70
2019-04-21T02:37:17.641Z,1021.70
2019-04-21T02:38:11.970Z,1021.76
2019-04-21T02:39:15.886Z,1021.79
2019-04-21T02:40:57.916Z,1021.68
2019-04-21T02:42:02.896Z,1021.70
2019-04-21T02:43:05.674Z,1021.70
2019-04-21T02:44:08.627Z,1021.65
2019-04-21T02:45:00.341Z,1021.67
2019-04-21T02:46:04.792Z,1021.72
2019-04-21T02:47:14.254Z,1021.72
2019-04-21T02:48:08.883Z,1021.72
2019-04-21T02:49:05.637Z,1021.74
2019-04-21T02:50:09.916Z,1021.74
2019-04-21T02:50:57.727Z,1021.71
2019-04-21T02:52:27.461Z,1021.73
2019-04-21T02:53:05.509Z,1021.73
2019-04-21T02:54:35.925Z,1021.71
2019-04-21T02:55:02.727Z,1021.72
2019-04-21T02:56:05.711Z,1021.68
2019-04-21T02:58:06.221Z,1021.65
2019-04-21T02:59:05.309Z,1021.58
2019-04-21T03:00:06.433Z,1021.58
2019-04-21T03:01:10.043Z,1021.58
2019-04-21T03:04:06.242Z,1021.47
2019-04-21T03:05:02.147Z,1021.50
2019-04-21T03:06:15.387Z,1021.46
2019-04-21T03:07:09.707Z,1021.45
2019-04-21T03:08:05.624Z,1021.43
2019-04-21T03:10:00.111Z,1021.40
2019-04-21T03:11:09.086Z,1021.41
2019-04-21T03:13:08.941Z,1021.45
2019-04-21T03:14:11.061Z,1021.40
2019-04-21T03:15:04.345Z,1021.41
2019-04-21T03:16:09.493Z,1021.39
2019-04-21T03:17:09.632Z,1021.35
2019-04-21T03:18:09.742Z,1021.34
2019-04-21T03:20:02.899Z,1021.32
2019-04-21T03:22:05.170Z,1021.37
2019-04-21T03:23:07.817Z,1021.37
2019-04-21T03:24:05.856Z,1021.33
2019-04-21T03:26:16.490Z,1021.36
2019-04-21T03:29:05.830Z,1021.37
2019-04-21T03:36:38.386Z,1021.32
2019-04-21T03:38:06.194Z,1021.28
2019-04-21T03:39:04.662Z,1021.27
2019-04-21T03:40:03.264Z,1021.21
2019-04-21T03:41:08.588Z,1021.26
2019-04-21T03:42:07.352Z,1021.22
2019-04-21T03:43:04.442Z,1021.19
2019-04-21T03:44:12.344Z,1021.22
2019-04-21T03:45:25.347Z,1021.21
2019-04-21T03:46:01.258Z,1021.22
2019-04-21T03:47:08.353Z,1021.17
2019-04-21T03:48:04.723Z,1021.27
2019-04-21T03:51:04.388Z,1021.23
2019-04-21T03:52:11.118Z,1021.24
2019-04-21T03:53:03.469Z,1021.25
2019-04-21T03:53:59.980Z,1021.21
2019-04-21T03:55:12.544Z,1021.26
2019-04-21T03:57:19.965Z,1021.23
2019-04-21T03:58:16.962Z,1021.23
2019-04-21T04:00:18.126Z,1021.27
2019-04-21T04:03:35.287Z,1021.28
2019-04-21T04:05:05.726Z,1021.27
2019-04-21T04:06:08.024Z,1021.29
2019-04-21T04:07:19.092Z,1021.31
2019-04-21T04:08:07.618Z,1021.26
2019-04-21T04:09:14.431Z,1021.24
2019-04-21T04:10:08.305Z,1021.24
2019-04-21T04:11:58.321Z,1021.20
2019-04-21T04:13:07.285Z,1021.26
2019-04-21T04:14:20.268Z,1021.25
2019-04-21T04:15:00.644Z,1021.22
2019-04-21T04:17:14.657Z,1021.26
2019-04-21T04:18:03.793Z,1021.27
2019-04-21T04:18:59.117Z,1021.19
2019-04-21T04:20:05.365Z,1021.17
2019-04-21T04:21:16.859Z,1021.19
2019-04-21T04:22:04.040Z,1021.13
2019-04-21T04:23:03.002Z,1021.15
2019-04-21T04:25:04.603Z,1021.17
2019-04-21T04:26:16.964Z,1021.16
2019-04-21T04:27:12.731Z,1021.15
2019-04-21T04:30:08.090Z,1021.23
2019-04-21T04:31:05.107Z,1021.22
2019-04-21T04:31:55.401Z,1021.18
2019-04-21T04:32:57.484Z,1021.18
2019-04-21T04:34:05.018Z,1021.19
2019-04-21T04:35:03.890Z,1021.23
2019-04-21T04:37:05.966Z,1021.17
2019-04-21T04:38:03.670Z,1021.18
2019-04-21T04:39:17.989Z,1021.18
2019-04-21T04:41:09.665Z,1021.16
2019-04-21T04:42:27.221Z,1021.22
2019-04-21T04:43:07.930Z,1021.22
2019-04-21T04:44:05.166Z,1021.19
2019-04-21T04:46:03.805Z,1021.17
2019-04-21T04:49:10.604Z,1021.18
2019-04-21T04:51:16.947Z,1021.18
2019-04-21T04:52:52.597Z,1021.17
2019-04-21T04:53:54.476Z,1021.17
2019-04-21T04:56:05.007Z,1021.14
2019-04-21T04:57:10.005Z,1021.20
2019-04-21T05:00:15.662Z,1021.17
2019-04-21T05:01:28.791Z,1021.15
2019-04-21T05:02:14.971Z,1021.16
2019-04-21T05:03:01.435Z,1021.19
2019-04-21T05:04:05.892Z,1021.21
2019-04-21T05:06:18.682Z,1021.16
2019-04-21T05:07:07.077Z,1021.17
2019-04-21T05:08:19.727Z,1021.20
2019-04-21T05:09:15.101Z,1021.16
2019-04-21T05:10:00.043Z,1021.16
2019-04-21T05:11:07.770Z,1021.10
2019-04-21T05:11:55.295Z,1021.14
2019-04-21T05:12:57.034Z,1021.12
2019-04-21T05:14:59.263Z,1021.09
2019-04-21T05:16:01.582Z,1021.11
2019-04-21T05:17:03.937Z,1021.13
2019-04-21T05:18:01.155Z,1021.11
2019-04-21T05:21:04.228Z,1021.11
2019-04-21T05:21:55.484Z,1021.09
2019-04-21T05:22:53.209Z,1021.09
2019-04-21T05:23:51.036Z,1021.05
2019-04-21T05:24:49.264Z,1021.05
2019-04-21T05:25:48.116Z,1021.05
2019-04-21T05:26:47.906Z,1021.00
2019-04-21T05:27:47.348Z,1021.04
2019-04-21T05:28:44.690Z,1021.06
2019-04-21T05:29:53.934Z,1021.05
2019-04-21T05:30:55.345Z,1021.02
2019-04-21T05:32:07.861Z,1021.00
2019-04-21T05:32:52.540Z,1021.01
2019-04-21T05:33:57.658Z,1021.04
2019-04-21T05:34:50.886Z,1021.01
2019-04-21T05:35:49.295Z,1021.00
2019-04-21T05:36:52.343Z,1021.03
2019-04-21T05:37:50.395Z,1021.03
2019-04-21T05:38:50.278Z,1021.05
2019-04-21T05:39:49.278Z,1021.07
2019-04-21T05:40:46.025Z,1020.99
2019-04-21T05:41:41.357Z,1020.97
2019-04-21T05:42:45.559Z,1020.99
2019-04-21T05:43:54.127Z,1021.04
2019-04-21T05:44:58.806Z,1021.04
2019-04-21T05:45:53.314Z,1021.00
2019-04-21T05:47:05.565Z,1021.03
2019-04-21T05:47:57.916Z,1021.05
2019-04-21T05:48:53.130Z,1021.02
2019-04-21T05:49:50.946Z,1021.06
2019-04-21T05:50:52.263Z,1021.02
2019-04-21T05:51:44.317Z,1021.07
2019-04-21T05:52:45.972Z,1021.05
2019-04-21T05:54:03.092Z,1021.08
2019-04-21T05:54:57.290Z,1021.03
2019-04-21T05:56:50.563Z,1021.04
2019-04-21T05:57:46.704Z,1021.05
2019-04-21T05:58:49.696Z,1021.05
2019-04-21T05:59:49.868Z,1021.05
2019-04-21T06:01:06.473Z,1021.04
2019-04-21T06:01:57.258Z,1021.05
2019-04-21T06:02:59.422Z,1021.04
2019-04-21T06:03:57.047Z,1021.00
2019-04-21T06:06:00.444Z,1021.01
2019-04-21T06:06:56.794Z,1021.02
2019-04-21T06:07:52.509Z,1021.01
2019-04-21T06:08:49.696Z,1020.98
2019-04-21T06:09:56.885Z,1020.99
2019-04-21T06:10:55.578Z,1021.02
2019-04-21T06:11:51.404Z,1021.02
2019-04-21T06:13:03.645Z,1021.00
2019-04-21T06:13:55.561Z,1020.93
2019-04-21T06:14:55.856Z,1020.96
2019-04-21T06:16:55.597Z,1020.93
2019-04-21T06:17:57.859Z,1020.98
2019-04-21T06:19:00.935Z,1020.96
2019-04-21T06:19:55.871Z,1020.96
2019-04-21T06:20:54.576Z,1020.96
2019-04-21T06:21:55.736Z,1020.97
2019-04-21T06:22:52.029Z,1020.95
2019-04-21T06:23:50.131Z,1020.97
2019-04-21T06:25:21.694Z,1020.96
2019-04-21T06:27:08.217Z,1020.99
2019-04-21T06:27:52.665Z,1021.01
2019-04-21T06:28:50.101Z,1020.99
2019-04-21T06:29:54.656Z,1021.00
2019-04-21T06:31:00.493Z,1021.00
2019-04-21T06:32:58.352Z,1021.05
2019-04-21T06:33:50.696Z,1021.02
2019-04-21T06:36:21.587Z,1021.06
2019-04-21T06:36:57.289Z,1021.04
2019-04-21T06:37:52.254Z,1021.04
2019-04-21T06:39:04.734Z,1020.98
2019-04-21T06:40:09.363Z,1020.98
2019-04-21T06:41:00.437Z,1020.96
2019-04-21T06:41:49.150Z,1021.00
2019-04-21T06:43:07.912Z,1020.95
2019-04-21T06:45:54.004Z,1020.92
2019-04-21T06:46:55.142Z,1020.92
2019-04-21T06:47:57.979Z,1020.91
2019-04-21T06:48:55.432Z,1020.92
2019-04-21T06:49:50.877Z,1020.91
2019-04-21T06:50:52.433Z,1020.96
2019-04-21T06:51:54.521Z,1020.91
2019-04-21T06:53:01.112Z,1020.91
2019-04-21T06:53:59.368Z,1020.90
2019-04-21T06:54:57.256Z,1020.90
2019-04-21T06:55:57.477Z,1020.88
2019-04-21T06:56:52.320Z,1020.90
2019-04-21T06:57:51.921Z,1020.91
2019-04-21T06:58:51.780Z,1020.93
2019-04-21T06:59:54.224Z,1020.92
2019-04-21T07:00:47.705Z,1020.90
2019-04-21T07:02:06.950Z,1020.91
2019-04-21T07:03:01.191Z,1020.89
2019-04-21T07:04:03.133Z,1020.87
2019-04-21T07:04:54.763Z,1020.89
2019-04-21T07:05:57.281Z,1020.86
2019-04-21T07:06:54.654Z,1020.88
2019-04-21T07:08:10.962Z,1020.86
2019-04-21T07:09:02.492Z,1020.85
2019-04-21T07:09:58.500Z,1020.90
2019-04-21T07:10:51.702Z,1020.87
2019-04-21T07:11:49.050Z,1020.87
2019-04-21T07:12:53.994Z,1020.89
2019-04-21T07:13:44.034Z,1020.89
2019-04-21T07:14:52.793Z,1020.91
2019-04-21T07:15:53.811Z,1020.88
2019-04-21T07:17:54.280Z,1020.88
2019-04-21T07:19:00.067Z,1020.92
2019-04-21T07:19:57.160Z,1020.88
2019-04-21T07:20:53.255Z,1020.90
2019-04-21T07:21:50.987Z,1020.91
2019-04-21T07:22:56.837Z,1020.93
2019-04-21T07:23:55.152Z,1020.94
2019-04-21T07:24:48.219Z,1020.92
2019-04-21T07:25:53.229Z,1020.88
2019-04-21T07:26:56.872Z,1020.91
2019-04-21T07:27:52.302Z,1020.88
2019-04-21T07:28:56.271Z,1020.89
2019-04-21T07:29:53.391Z,1020.87
2019-04-21T07:30:51.543Z,1020.87
2019-04-21T07:31:59.242Z,1020.86
2019-04-21T07:32:58.089Z,1020.84
2019-04-21T07:34:52.173Z,1020.84
2019-04-21T07:35:50.904Z,1020.79
2019-04-21T07:37:53.652Z,1020.77
2019-04-21T07:38:50.379Z,1020.75
2019-04-21T07:39:49.930Z,1020.77
2019-04-21T07:40:45.492Z,1020.75
2019-04-21T07:41:48.412Z,1020.77
2019-04-21T07:42:56.128Z,1020.76
2019-04-21T07:43:44.045Z,1020.75
2019-04-21T07:44:44.799Z,1020.76
2019-04-21T07:45:47.249Z,1020.73
2019-04-21T07:46:47.186Z,1020.69
2019-04-21T07:47:53.145Z,1020.64
2019-04-21T07:48:49.501Z,1020.64
2019-04-21T07:49:54.962Z,1020.66
2019-04-21T07:50:51.429Z,1020.61
2019-04-21T07:51:54.910Z,1020.63
2019-04-21T07:52:53.597Z,1020.57
2019-04-21T07:53:58.379Z,1020.60
2019-04-21T07:54:57.373Z,1020.57
2019-04-21T07:55:30.195Z,1020.57
2019-04-21T07:56:34.938Z,1020.58
2019-04-21T07:57:45.680Z,1020.59
2019-04-21T07:58:53.880Z,1020.52
2019-04-21T07:59:56.547Z,1020.54
2019-04-21T08:01:11.919Z,1020.56
2019-04-21T08:01:50.860Z,1020.53
2019-04-21T08:02:52.405Z,1020.53
2019-04-21T08:05:53.683Z,1020.46
2019-04-21T08:07:51.880Z,1020.41
2019-04-21T08:08:50.686Z,1020.42
2019-04-21T08:09:47.281Z,1020.47
2019-04-21T08:10:45.284Z,1020.47
2019-04-21T08:11:41.628Z,1020.46
2019-04-21T08:12:49.683Z,1020.47
2019-04-21T08:14:01.081Z,1020.47
2019-04-21T08:14:50.798Z,1020.50
2019-04-21T08:16:07.726Z,1020.42
2019-04-21T08:16:51.170Z,1020.38
2019-04-21T08:17:48.038Z,1020.42
2019-04-21T08:18:50.217Z,1020.39
2019-04-21T08:19:42.565Z,1020.36
2019-04-21T08:20:47.780Z,1020.36
2019-04-21T08:21:53.062Z,1020.35
2019-04-21T08:22:51.701Z,1020.36
2019-04-21T08:23:50.239Z,1020.32
2019-04-21T08:24:52.126Z,1020.36
2019-04-21T08:26:04.839Z,1020.35
2019-04-21T08:26:52.577Z,1020.37
2019-04-21T08:28:56.471Z,1020.34
2019-04-21T08:29:52.182Z,1020.33
2019-04-21T08:30:47.719Z,1020.32
2019-04-21T08:31:56.170Z,1020.31
2019-04-21T08:33:14.227Z,1020.30
2019-04-21T08:33:56.107Z,1020.36
2019-04-21T08:34:57.368Z,1020.27
2019-04-21T08:36:51.590Z,1020.28
2019-04-21T08:37:48.361Z,1020.31
2019-04-21T08:38:49.608Z,1020.28
2019-04-21T08:39:58.041Z,1020.26
2019-04-21T08:40:49.237Z,1020.30
2019-04-21T08:41:49.651Z,1020.26
2019-04-21T08:42:53.987Z,1020.28
2019-04-21T08:43:51.983Z,1020.27
2019-04-21T08:44:52.964Z,1020.26
2019-04-21T08:45:52.677Z,1020.26
2019-04-21T08:46:54.701Z,1020.27
2019-04-21T08:48:49.470Z,1020.27
2019-04-21T08:49:48.633Z,1020.19
2019-04-21T08:50:52.575Z,1020.20
2019-04-21T08:51:56.636Z,1020.16
2019-04-21T08:52:56.618Z,1020.20
2019-04-21T08:54:49.663Z,1020.15
2019-04-21T08:56:00.572Z,1020.13
2019-04-21T08:56:46.727Z,1020.14
2019-04-21T08:58:00.744Z,1020.07
2019-04-21T08:58:52.911Z,1020.13
2019-04-21T08:59:56.859Z,1020.08
2019-04-21T09:00:47.112Z,1020.02
2019-04-21T09:01:48.951Z,1020.03
2019-04-21T09:02:47.347Z,1020.03
2019-04-21T09:03:44.032Z,1020.01
2019-04-21T09:04:48.021Z,1020.02
2019-04-21T09:05:49.415Z,1019.98
2019-04-21T09:06:58.684Z,1019.95
2019-04-21T09:07:52.519Z,1019.97
2019-04-21T09:08:46.082Z,1019.98
2019-04-21T09:09:47.567Z,1019.99
2019-04-21T09:10:47.054Z,1019.92
2019-04-21T09:11:49.892Z,1019.96
2019-04-21T09:12:46.692Z,1019.95
2019-04-21T09:13:49.043Z,1019.93
2019-04-21T09:14:52.757Z,1019.91
2019-04-21T09:15:41.669Z,1019.89
2019-04-21T09:16:41.095Z,1019.93
2019-04-21T09:17:41.141Z,1019.90
2019-04-21T09:18:40.422Z,1019.85
2019-04-21T09:20:07.792Z,1019.85
2019-04-21T09:21:49.970Z,1019.84
2019-04-21T09:22:47.788Z,1019.83
2019-04-21T09:23:44.914Z,1019.84
2019-04-21T09:24:46.898Z,1019.83
2019-04-21T09:25:47.300Z,1019.82
2019-04-21T09:26:46.498Z,1019.80
2019-04-21T09:27:42.138Z,1019.78
2019-04-21T09:28:39.422Z,1019.82
2019-04-21T09:29:36.744Z,1019.81
2019-04-21T09:30:33.909Z,1019.76
2019-04-21T09:31:33.791Z,1019.74
2019-04-21T09:32:31.389Z,1019.74
2019-04-21T09:33:33.444Z,1019.72
2019-04-21T09:34:33.209Z,1019.66
2019-04-21T09:35:29.079Z,1019.68
2019-04-21T09:36:36.134Z,1019.62
2019-04-21T09:37:39.561Z,1019.62
2019-04-21T09:38:35.117Z,1019.61
2019-04-21T09:39:30.061Z,1019.60
2019-04-21T09:40:33.623Z,1019.60
2019-04-21T09:41:29.625Z,1019.56
2019-04-21T09:42:34.813Z,1019.53
2019-04-21T09:43:37.700Z,1019.55
2019-04-21T09:44:33.398Z,1019.51
2019-04-21T09:45:28.604Z,1019.52
2019-04-21T09:46:27.607Z,1019.52
2019-04-21T09:47:35.147Z,1019.54
2019-04-21T09:48:30.630Z,1019.52
2019-04-21T09:49:31.277Z,1019.49
2019-04-21T09:50:27.732Z,1019.47
2019-04-21T09:51:27.810Z,1019.44
2019-04-21T09:52:37.139Z,1019.43
2019-04-21T09:53:33.220Z,1019.41
2019-04-21T09:54:31.531Z,1019.43
2019-04-21T09:55:36.474Z,1019.39
2019-04-21T09:56:37.434Z,1019.37
2019-04-21T09:57:38.260Z,1019.36
2019-04-21T09:58:34.598Z,1019.34
2019-04-21T09:59:33.518Z,1019.31
2019-04-21T10:00:31.443Z,1019.27
2019-04-21T10:01:38.270Z,1019.24
2019-04-21T10:02:42.847Z,1019.26
2019-04-21T10:03:37.128Z,1019.22
2019-04-21T10:04:28.896Z,1019.22
2019-04-21T10:05:27.335Z,1019.21
2019-04-21T10:06:28.238Z,1019.17
2019-04-21T10:07:33.384Z,1019.17
2019-04-21T10:08:27.535Z,1019.19
2019-04-21T10:09:26.527Z,1019.24
2019-04-21T10:10:27.582Z,1019.20
2019-04-21T10:11:26.925Z,1019.22
2019-04-21T10:12:26.492Z,1019.23
2019-04-21T10:13:27.429Z,1019.19
2019-04-21T10:14:26.515Z,1019.16
2019-04-21T10:15:28.241Z,1019.13
2019-04-21T10:16:26.439Z,1019.12
2019-04-21T10:17:27.549Z,1019.11
2019-04-21T10:18:29.372Z,1019.07
2019-04-21T10:19:27.509Z,1019.08
2019-04-21T10:20:26.567Z,1019.04
2019-04-21T10:21:27.727Z,1019.02
2019-04-21T10:22:26.691Z,1019.03
2019-04-21T10:23:27.431Z,1019.00
2019-04-21T10:24:26.481Z,1019.02
2019-04-21T10:25:26.375Z,1019.05
2019-04-21T10:26:26.465Z,1019.05
2019-04-21T10:27:27.322Z,1019.02
2019-04-21T10:28:26.864Z,1018.97
2019-04-21T10:29:29.523Z,1018.96
2019-04-21T10:30:28.617Z,1018.92
2019-04-21T10:31:27.020Z,1018.91
2019-04-21T10:32:26.266Z,1018.86
2019-04-21T10:33:26.346Z,1018.91
2019-04-21T10:34:27.283Z,1018.88
2019-04-21T10:35:26.348Z,1018.85
2019-04-21T10:36:26.862Z,1018.84
2019-04-21T10:37:38.857Z,1018.85
2019-04-21T10:38:36.552Z,1018.85
2019-04-21T10:39:27.416Z,1018.87
2019-04-21T10:40:27.496Z,1018.79
2019-04-21T10:41:27.479Z,1018.80
2019-04-21T10:42:27.010Z,1018.79
2019-04-21T10:43:27.478Z,1018.76
2019-04-21T10:44:27.339Z,1018.77
2019-04-21T10:45:26.163Z,1018.74
2019-04-21T10:46:26.684Z,1018.73
2019-04-21T10:47:26.965Z,1018.71
2019-04-21T10:48:26.104Z,1018.70
2019-04-21T10:49:26.606Z,1018.71
2019-04-21T10:50:26.818Z,1018.72
2019-04-21T10:51:26.086Z,1018.69
2019-04-21T10:52:29.251Z,1018.66
2019-04-21T10:53:27.061Z,1018.67
2019-04-21T10:54:27.284Z,1018.66
2019-04-21T10:55:45.011Z,1018.67
2019-04-21T10:56:34.446Z,1018.60
2019-04-21T10:57:28.331Z,1018.63
2019-04-21T10:58:36.275Z,1018.64
2019-04-21T10:59:35.311Z,1018.60
2019-04-21T11:00:26.041Z,1018.59
2019-04-21T11:01:27.199Z,1018.59
2019-04-21T11:02:26.412Z,1018.56
2019-04-21T11:03:26.849Z,1018.51
2019-04-21T11:04:32.374Z,1018.45
2019-04-21T11:05:27.039Z,1018.52
2019-04-21T11:06:26.504Z,1018.49
2019-04-21T11:07:31.375Z,1018.47
2019-04-21T11:09:37.921Z,1018.39
2019-04-21T11:10:36.521Z,1018.37
2019-04-21T11:11:37.637Z,1018.33
2019-04-21T11:12:39.100Z,1018.37
2019-04-21T11:13:36.958Z,1018.33
2019-04-21T11:14:36.483Z,1018.34
2019-04-21T11:15:37.284Z,1018.25
2019-04-21T11:16:37.170Z,1018.31
2019-04-21T11:17:36.531Z,1018.32
2019-04-21T11:18:37.749Z,1018.30
2019-04-21T11:19:36.882Z,1018.25
2019-04-21T11:20:37.226Z,1018.27
2019-04-21T11:21:40.833Z,1018.23
2019-04-21T11:22:38.194Z,1018.22
2019-04-21T11:23:37.483Z,1018.21
2019-04-21T11:24:36.712Z,1018.16
2019-04-21T11:25:37.603Z,1018.16
2019-04-21T11:26:37.825Z,1018.19
2019-04-21T11:28:48.951Z,1018.15
2019-04-21T11:29:48.037Z,1018.08
2019-04-21T11:30:48.754Z,1018.07
2019-04-21T11:31:49.338Z,1018.08
2019-04-21T11:32:49.437Z,1018.09
2019-04-21T11:33:53.562Z,1018.11
2019-04-21T11:34:49.060Z,1018.05
2019-04-21T11:35:49.461Z,1018.05
2019-04-21T11:36:48.121Z,1018.05
2019-04-21T11:37:48.342Z,1018.00
2019-04-21T11:39:08.634Z,1017.99
2019-04-21T11:39:55.313Z,1018.04
2019-04-21T11:40:49.814Z,1018.03
2019-04-21T11:41:48.016Z,1017.98
2019-04-21T11:42:48.169Z,1018.03
2019-04-21T11:43:48.860Z,1018.00
2019-04-21T11:44:49.271Z,1018.01
2019-04-21T11:45:48.528Z,1018.00
2019-04-21T11:46:48.873Z,1018.01
2019-04-21T11:47:48.246Z,1018.03
2019-04-21T11:48:48.336Z,1018.00
2019-04-21T11:49:49.258Z,1017.99
2019-04-21T11:50:48.827Z,1018.05
2019-04-21T11:51:48.967Z,1017.98
2019-04-21T11:52:49.229Z,1017.99
2019-04-21T11:53:48.797Z,1017.96
2019-04-21T11:54:48.665Z,1017.92
2019-04-21T11:55:49.943Z,1017.90
2019-04-21T11:56:48.549Z,1017.93
2019-04-21T11:57:49.791Z,1017.87
2019-04-21T11:58:47.903Z,1017.91
2019-04-21T11:59:47.994Z,1017.87
2019-04-21T12:00:47.707Z,1017.84
2019-04-21T12:01:47.743Z,1017.85
2019-04-21T12:02:47.786Z,1017.85
2019-04-21T12:03:47.667Z,1017.81
2019-04-21T12:04:47.709Z,1017.81
2019-04-21T12:05:47.793Z,1017.81
2019-04-21T12:06:49.205Z,1017.76
2019-04-21T12:07:47.627Z,1017.77
2019-04-21T12:08:50.986Z,1017.73
2019-04-21T12:09:48.629Z,1017.76
2019-04-21T12:10:47.597Z,1017.82
2019-04-21T12:11:47.569Z,1017.83
2019-04-21T12:12:47.580Z,1017.89
2019-04-21T12:13:47.941Z,1017.94
2019-04-21T12:14:48.025Z,1017.91
2019-04-21T12:15:47.580Z,1017.90
2019-04-21T12:16:48.685Z,1017.91
2019-04-21T12:17:48.087Z,1017.95
2019-04-21T12:18:47.530Z,1017.89
2019-04-21T12:19:48.526Z,1017.92
2019-04-21T12:20:47.520Z,1017.97
2019-04-21T12:22:00.399Z,1017.95
2019-04-21T12:22:49.441Z,1017.93
2019-04-21T12:23:48.128Z,1017.98
2019-04-21T12:24:47.456Z,1018.03
2019-04-21T12:25:47.474Z,1018.01
2019-04-21T12:26:47.437Z,1017.95
2019-04-21T12:27:48.009Z,1017.93
2019-04-21T12:28:47.915Z,1017.96
2019-04-21T12:29:48.004Z,1018.01
2019-04-21T12:30:47.460Z,1017.96
2019-04-21T12:31:47.639Z,1017.98
2019-04-21T12:32:48.595Z,1017.99
2019-04-21T12:33:47.827Z,1018.00
2019-04-21T12:34:50.099Z,1017.96
2019-04-21T12:35:48.189Z,1017.97
2019-04-21T12:36:48.625Z,1017.98
2019-04-21T12:37:48.890Z,1017.97
2019-04-21T12:38:53.915Z,1017.94
2019-04-21T12:39:48.628Z,1017.97
2019-04-21T12:40:48.482Z,1017.95
2019-04-21T12:41:48.738Z,1017.89
2019-04-21T12:42:48.320Z,1017.96
2019-04-21T12:43:48.598Z,1017.86
2019-04-21T12:44:47.528Z,1017.87
2019-04-21T12:45:47.241Z,1017.89
2019-04-21T12:46:47.726Z,1017.89
2019-04-21T12:47:49.952Z,1017.87
2019-04-21T12:48:47.260Z,1017.86
2019-04-21T12:49:47.789Z,1017.91
2019-04-21T12:50:47.929Z,1017.87
2019-04-21T12:51:48.050Z,1017.89
2019-04-21T12:52:47.447Z,1017.87
2019-04-21T12:53:47.768Z,1017.88
2019-04-21T12:54:47.993Z,1017.81
2019-04-21T12:55:48.055Z,1017.75
2019-04-21T12:56:47.677Z,1017.80
2019-04-21T12:57:47.680Z,1017.74
2019-04-21T12:58:47.279Z,1017.71
2019-04-21T12:59:47.127Z,1017.73
2019-04-21T13:00:47.273Z,1017.70
2019-04-21T13:01:47.115Z,1017.70
2019-04-21T13:02:47.745Z,1017.69
2019-04-21T13:03:47.978Z,1017.62
2019-04-21T13:04:49.299Z,1017.61
2019-04-21T13:05:47.552Z,1017.65
2019-04-21T13:06:47.599Z,1017.68
2019-04-21T13:07:47.053Z,1017.65
2019-04-21T13:08:55.652Z,1017.56
2019-04-21T13:09:48.436Z,1017.61
2019-04-21T13:10:48.450Z,1017.57
2019-04-21T13:11:47.051Z,1017.56
2019-04-21T13:12:47.991Z,1017.53
2019-04-21T13:13:48.097Z,1017.52
2019-04-21T13:14:47.495Z,1017.40
2019-04-21T13:15:47.537Z,1017.42
2019-04-21T13:16:47.780Z,1017.45
2019-04-21T13:17:47.409Z,1017.42